Time;durP1;ratioP1;P1;durP2;ratioP2;P2;SDS_P1;SDS_P2;PMS_P1;PMS_P2;Temp;Humidity;BMP_temperature;BMP_pressure;BME280_temperature;BME280_humidity;BME280_pressure;Samples;Min_cycle;Max_cycle;Signal;HPM_P1;HPM_P2
2022/10/07 00:01:30;;;;;;;4.78;2.85;;;;;;;16.07;84.61;100095.59;5111300;27;20046;-52
2022/10/07 00:04:15;;;;;;;4.68;2.42;;;;;;;16.13;84.05;100086.38;5126394;27;20462;-53
2022/10/07 00:07:00;;;;;;;3.83;2.40;;;;;;;16.17;84.20;100101.06;5113748;27;20036;-53
2022/10/07 00:09:44;;;;;;;4.22;2.70;;;;;;;16.14;83.82;100103.94;5107349;28;20146;-54
2022/10/07 00:12:29;;;;;;;4.10;2.70;;;;;;;15.96;84.85;100095.47;5112042;27;20085;-50
2022/10/07 00:15:14;;;;;;;5.15;2.47;;;;;;;15.94;85.07;100097.38;5102466;27;20088;-53
2022/10/07 00:17:58;;;;;;;6.47;2.58;;;;;;;15.99;84.88;100095.28;5094147;27;20150;-52
2022/10/07 00:20:43;;;;;;;5.07;2.35;;;;;;;16.00;84.52;100091.69;5097755;27;20032;-52
2022/10/07 00:23:28;;;;;;;4.22;3.10;;;;;;;15.97;84.59;100084.78;5094326;28;20115;-51
2022/10/07 00:26:15;;;;;;;4.28;2.53;;;;;;;15.98;84.74;100091.78;5092034;28;20364;-54
2022/10/07 00:29:00;;;;;;;5.20;2.85;;;;;;;15.88;85.26;100090.69;5097738;28;20043;-53
2022/10/07 00:31:44;;;;;;;4.22;2.78;;;;;;;15.88;85.62;100083.63;5093568;27;20055;-53
2022/10/07 00:34:29;;;;;;;3.92;2.35;;;;;;;15.94;84.84;100087.66;5090957;28;20035;-51
2022/10/07 00:37:13;;;;;;;6.65;2.65;;;;;;;15.94;84.75;100082.38;5106367;28;20054;-54
2022/10/07 00:40:00;;;;;;;3.28;2.20;;;;;;;15.93;84.88;100082.47;5118150;27;20062;-54
2022/10/07 00:42:45;;;;;;;5.03;2.78;;;;;;;15.87;85.03;100081.09;5108381;28;20039;-52
2022/10/07 00:45:30;;;;;;;3.72;2.42;;;;;;;15.82;85.41;100073.50;5103040;27;20039;-54
2022/10/07 00:48:22;;;;;;;6.15;2.05;;;;;;;15.74;86.03;100073.19;5089970;28;20047;-57
2022/10/07 00:51:08;;;;;;;3.47;2.63;;;;;;;15.76;86.02;100068.66;5106580;28;20067;-53
2022/10/07 00:53:54;;;;;;;3.47;2.63;;;;;;;15.80;86.03;100072.75;5089112;28;20119;-50
2022/10/07 00:56:41;;;;;;;3.00;2.13;;;;;;;15.72;86.18;100062.72;5097849;27;20133;-56
2022/10/07 00:59:26;;;;;;;5.28;2.88;;;;;;;15.68;86.41;100065.69;5101268;28;20115;-53
2022/10/07 01:02:11;;;;;;;3.28;2.30;;;;;;;15.62;86.75;100065.16;5108530;27;20047;-53
2022/10/07 01:04:58;;;;;;;6.90;2.55;;;;;;;15.62;86.88;100061.66;5092247;28;20047;-51
2022/10/07 01:07:46;;;;;;;3.03;2.10;;;;;;;15.63;86.96;100056.28;5121495;27;20471;-52
2022/10/07 01:10:40;;;;;;;4.13;2.22;;;;;;;15.60;87.24;100045.91;5103204;28;20031;-54
2022/10/07 01:13:35;;;;;;;4.43;2.92;;;;;;;15.54;87.40;100054.28;5104367;27;20134;-53
2022/10/07 01:16:29;;;;;;;3.50;2.28;;;;;;;15.51;87.44;100047.44;5112048;28;20032;-52
2022/10/07 01:19:20;;;;;;;4.97;2.47;;;;;;;15.56;87.31;100040.97;5096310;28;20115;-54
2022/10/07 01:22:29;;;;;;;3.47;2.23;;;;;;;15.39;88.38;100046.47;5102063;28;20047;-56
2022/10/07 01:25:27;;;;;;;2.80;2.10;;;;;;;15.42;88.33;100037.50;5089568;28;20059;-52
2022/10/07 01:28:18;;;;;;;5.72;2.80;;;;;;;15.34;88.79;100042.47;5090319;28;20088;-54
2022/10/07 01:31:05;;;;;;;;;;;;;;;15.29;89.34;100032.22;5113856;28;20425;-55
2022/10/07 01:33:52;;;;;;;3.38;2.17;;;;;;;15.36;88.92;100045.81;5121136;28;20359;-56
2022/10/07 01:36:43;;;;;;;3.33;2.28;;;;;;;15.44;88.43;100040.03;5101855;28;20067;-49
2022/10/07 01:39:36;;;;;;;4.82;2.63;;;;;;;15.11;89.79;100035.13;5101470;28;20031;-50
2022/10/07 01:42:22;;;;;;;4.95;2.85;;;;;;;14.93;91.50;100031.97;5099777;28;20050;-54
2022/10/07 01:45:10;;;;;;;5.88;2.40;;;;;;;14.84;92.14;100036.06;5113477;28;20162;-57
2022/10/07 01:47:57;;;;;;;4.95;2.42;;;;;;;14.90;92.19;100034.81;5101765;28;20448;-52
2022/10/07 01:50:43;;;;;;;5.03;2.47;;;;;;;14.73;93.05;100025.34;5104458;28;20046;-51
2022/10/07 01:53:53;;;;;;;6.13;3.10;;;;;;;14.59;94.08;100028.91;5107628;28;20119;-53
2022/10/07 01:56:59;;;;;;;5.13;2.30;;;;;;;14.48;95.62;100026.94;5106941;28;20039;-51
2022/10/07 01:59:53;;;;;;;3.38;2.40;;;;;;;14.36;96.80;100012.78;5111220;28;20128;-52
2022/10/07 02:02:47;;;;;;;4.13;2.92;;;;;;;14.28;97.01;100018.56;5108638;27;20379;-53
2022/10/07 02:05:37;;;;;;;4.68;2.90;;;;;;;14.56;95.62;100013.28;5090142;28;20088;-52
2022/10/07 02:08:36;;;;;;;6.03;3.05;;;;;;;14.53;95.15;100014.31;5106168;27;21811;-53
2022/10/07 02:11:27;;;;;;;6.57;3.00;;;;;;;14.48;95.74;100022.50;5081133;28;20070;-53
2022/10/07 02:14:27;;;;;;;4.28;2.80;;;;;;;14.28;97.65;100016.75;5098583;28;20513;-54
2022/10/07 02:17:16;;;;;;;5.07;2.58;;;;;;;14.22;98.66;100014.50;5114320;27;20135;-60
2022/10/07 02:20:07;;;;;;;4.32;3.13;;;;;;;14.10;99.42;100012.66;5098543;28;20054;-52
2022/10/07 02:22:56;;;;;;;4.78;3.28;;;;;;;14.08;100.00;100006.63;5094732;28;20036;-53
2022/10/07 02:25:52;;;;;;;4.88;3.38;;;;;;;14.03;100.00;100012.19;5087956;28;21766;-51
2022/10/07 02:28:41;;;;;;;8.15;3.50;;;;;;;14.00;100.00;100004.50;5108026;27;20039;-49
2022/10/07 02:31:31;;;;;;;7.15;3.70;;;;;;;14.02;100.00;100002.59;5101801;27;20359;-54
2022/10/07 02:34:21;;;;;;;4.35;3.10;;;;;;;14.12;100.00;100008.13;5104792;28;20101;-53
2022/10/07 02:37:22;;;;;;;5.47;3.35;;;;;;;14.01;100.00;100000.91;5107491;27;20055;-49
2022/10/07 02:40:07;;;;;;;6.15;3.47;;;;;;;13.95;100.00;100002.16;5107593;27;20359;-56
2022/10/07 02:42:59;;;;;;;8.10;3.97;;;;;;;13.92;100.00;100002.34;5106485;27;20050;-50
2022/10/07 02:45:51;;;;;;;6.60;3.83;;;;;;;13.82;100.00;100001.22;5116836;27;20071;-52
2022/10/07 02:48:45;;;;;;;4.85;3.47;;;;;;;13.84;100.00;99996.72;5099331;28;20040;-51
2022/10/07 02:51:37;;;;;;;8.73;4.07;;;;;;;13.80;100.00;99993.44;5116079;27;20062;-53
2022/10/07 02:54:46;;;;;;;4.97;3.63;;;;;;;13.73;100.00;99992.97;5091322;28;20394;-53
2022/10/07 02:57:36;;;;;;;9.45;3.83;;;;;;;13.70;100.00;100000.19;5116247;28;20051;-54
2022/10/07 03:00:22;;;;;;;6.10;3.75;;;;;;;13.71;100.00;100000.09;5111987;28;20040;-52
2022/10/07 03:03:08;;;;;;;5.57;4.15;;;;;;;13.72;100.00;99991.28;5111308;28;20382;-50
2022/10/07 03:06:07;;;;;;;8.02;3.25;;;;;;;13.65;100.00;99990.81;5115071;28;20097;-53
2022/10/07 03:08:56;;;;;;;6.00;3.78;;;;;;;13.73;100.00;99986.84;5114826;28;20040;-52
2022/10/07 03:11:41;;;;;;;5.65;3.90;;;;;;;13.73;100.00;99989.47;5106837;27;20118;-55
2022/10/07 03:14:26;;;;;;;8.90;3.90;;;;;;;13.73;100.00;99986.84;5106051;27;20122;-54
2022/10/07 03:17:11;;;;;;;5.82;3.50;;;;;;;13.95;100.00;99991.63;5106771;27;20358;-55
2022/10/07 03:19:56;;;;;;;6.78;4.40;;;;;;;13.97;100.00;99992.34;5106393;28;20044;-52
2022/10/07 03:22:45;;;;;;;6.43;3.75;;;;;;;14.01;100.00;99983.31;5112791;27;20047;-53
2022/10/07 03:25:34;;;;;;;6.15;3.92;;;;;;;13.71;100.00;99983.47;5121021;27;20035;-55
2022/10/07 03:28:21;;;;;;;7.50;4.00;;;;;;;13.66;100.00;99981.97;5071666;28;20044;-53
2022/10/07 03:31:09;;;;;;;6.30;4.18;;;;;;;13.69;100.00;99985.34;5054610;28;20033;-53
2022/10/07 03:33:56;;;;;;;5.53;3.42;;;;;;;13.62;100.00;99985.72;5069366;28;20036;-53
2022/10/07 03:36:41;;;;;;;8.85;4.10;;;;;;;13.52;100.00;99984.59;5063279;28;20086;-53
2022/10/07 03:39:27;;;;;;;5.05;3.72;;;;;;;13.48;100.00;99986.53;5055670;28;20568;-54
2022/10/07 03:42:12;;;;;;;5.90;4.00;;;;;;;13.54;100.00;99982.72;5059869;28;20049;-53
2022/10/07 03:44:58;;;;;;;8.38;4.78;;;;;;;13.49;100.00;99985.63;5059217;28;20044;-52
2022/10/07 03:47:45;;;;;;;6.65;4.53;;;;;;;13.34;100.00;99994.44;5050811;28;20453;-54
2022/10/07 03:50:29;;;;;;;6.22;4.28;;;;;;;13.16;100.00;99984.94;5074910;28;20464;-52
2022/10/07 03:53:14;;;;;;;8.00;4.50;;;;;;;13.09;100.00;99982.78;5052804;28;20080;-52
2022/10/07 03:55:59;;;;;;;7.22;4.50;;;;;;;13.13;100.00;99982.50;5064300;28;20064;-51
2022/10/07 03:58:43;;;;;;;8.90;5.20;;;;;;;13.02;100.00;99983.13;5072549;28;20094;-51
2022/10/07 04:01:30;;;;;;;8.70;4.90;;;;;;;12.99;100.00;99978.03;5078144;28;20036;-53
2022/10/07 04:04:16;;;;;;;8.43;5.07;;;;;;;12.93;100.00;99976.63;5097642;28;20597;-53
2022/10/07 04:07:01;;;;;;;7.25;4.72;;;;;;;13.01;100.00;99978.81;5099934;28;20031;-54
2022/10/07 04:09:46;;;;;;;8.10;5.32;;;;;;;12.85;100.00;99970.97;5118116;27;20165;-57
2022/10/07 04:12:32;;;;;;;6.72;5.00;;;;;;;12.80;100.00;99971.25;5082426;28;20114;-54
2022/10/07 04:15:18;;;;;;;10.00;5.28;;;;;;;12.93;100.00;99973.16;5103894;27;20490;-50
2022/10/07 04:18:09;;;;;;;6.55;5.03;;;;;;;12.91;100.00;99970.63;5098294;27;20039;-54
2022/10/07 04:20:58;;;;;;;8.75;5.10;;;;;;;12.79;100.00;99968.72;5124133;27;20450;-56
2022/10/07 04:23:42;;;;;;;9.20;5.80;;;;;;;12.65;100.00;99972.13;5110577;28;20039;-54
2022/10/07 04:26:27;;;;;;;7.88;5.97;;;;;;;12.66;100.00;99966.81;5110565;28;20046;-54
2022/10/07 04:29:12;;;;;;;8.90;5.57;;;;;;;12.69;100.00;99971.03;5098882;28;20394;-54
2022/10/07 04:31:57;;;;;;;13.63;6.05;;;;;;;12.56;100.00;99965.66;5109831;28;20113;-51
2022/10/07 04:34:42;;;;;;;9.50;5.95;;;;;;;12.48;100.00;99958.22;5093728;28;20047;-53
2022/10/07 04:37:27;;;;;;;8.18;5.65;;;;;;;12.48;100.00;99957.34;5119328;27;20542;-48
2022/10/07 04:40:11;;;;;;;12.18;6.63;;;;;;;12.34;100.00;99958.16;5117178;27;20035;-50
2022/10/07 04:46:03;;;;;;;11.48;6.75;;;;;;;12.32;100.00;99959.06;5108165;28;20059;-55
2022/10/07 04:48:47;;;;;;;11.70;6.97;;;;;;;12.30;100.00;99955.72;5120880;27;20031;-55
2022/10/07 04:51:35;;;;;;;12.98;7.40;;;;;;;12.24;100.00;99960.47;5127075;27;20036;-45
2022/10/07 04:54:20;;;;;;;11.10;6.82;;;;;;;12.47;100.00;99958.31;5102752;27;20035;-53
2022/10/07 04:57:12;;;;;;;9.95;6.80;;;;;;;12.25;100.00;99960.38;5103823;28;20131;-54
2022/10/07 04:59:57;;;;;;;12.15;6.88;;;;;;;12.03;100.00;99972.03;5086782;28;20047;-52
2022/10/07 05:02:45;;;;;;;16.92;7.93;;;;;;;12.58;100.00;99979.56;5114497;27;20383;-53
2022/10/07 05:05:30;;;;;;;15.13;7.25;;;;;;;12.11;100.00;99970.81;5092322;28;20067;-55
2022/10/07 05:08:18;;;;;;;9.07;6.07;;;;;;;12.00;100.00;99960.84;5092654;28;20507;-52
2022/10/07 05:11:03;;;;;;;10.60;6.55;;;;;;;11.93;100.00;99963.81;5092480;28;20151;-52
2022/10/07 05:13:55;;;;;;;;;;;;;;;11.84;100.00;99969.59;5125493;27;20462;-51
2022/10/07 05:16:40;;;;;;;13.50;7.35;;;;;;;11.84;100.00;99961.72;5099692;28;19943;-52
2022/10/07 05:19:25;;;;;;;14.63;7.35;;;;;;;11.92;100.00;99967.38;5099081;28;20043;-54
2022/10/07 05:22:11;;;;;;;15.45;7.63;;;;;;;11.99;100.00;99973.16;5114335;28;20040;-53
2022/10/07 05:24:56;;;;;;;13.35;7.60;;;;;;;11.95;100.00;99961.09;5116843;28;20043;-52
2022/10/07 05:27:41;;;;;;;16.20;8.25;;;;;;;12.05;100.00;99964.06;5108410;28;20075;-50
2022/10/07 05:30:26;;;;;;;16.67;9.05;;;;;;;12.14;100.00;99963.56;5114259;28;20472;-51
2022/10/07 05:33:11;;;;;;;15.73;9.05;;;;;;;12.23;100.00;99967.47;5106492;28;20127;-58
2022/10/07 05:35:58;;;;;;;13.25;7.38;;;;;;;12.34;100.00;99963.41;5096872;28;20082;-53
2022/10/07 05:38:43;;;;;;;12.38;8.38;;;;;;;12.42;100.00;99967.28;5102570;28;20046;-54
2022/10/07 05:41:29;;;;;;;14.05;8.40;;;;;;;12.47;100.00;99964.38;5111613;28;20051;-53
2022/10/07 05:44:15;;;;;;;11.65;7.25;;;;;;;12.61;100.00;99960.13;5114892;27;20036;-53
2022/10/07 05:47:01;;;;;;;13.23;8.25;;;;;;;12.55;100.00;99958.72;5100789;27;20128;-54
2022/10/07 05:49:45;;;;;;;14.05;8.35;;;;;;;12.60;100.00;99964.53;5102459;28;20072;-53
2022/10/07 05:52:31;;;;;;;11.55;8.00;;;;;;;12.88;100.00;99962.06;5107107;28;20062;-54
2022/10/07 05:55:16;;;;;;;12.20;7.90;;;;;;;12.90;100.00;99953.16;5114216;27;20133;-51
2022/10/07 05:58:01;;;;;;;10.88;7.57;;;;;;;12.90;100.00;99954.94;5116539;27;20394;-54
2022/10/07 06:00:54;;;;;;;10.75;7.53;;;;;;;12.98;100.00;99972.88;5103783;27;20113;-51
2022/10/07 06:03:40;;;;;;;14.68;8.15;;;;;;;13.27;100.00;99960.59;5118421;27;20044;-52
2022/10/07 06:06:25;;;;;;;10.85;7.00;;;;;;;13.29;100.00;99966.63;5105884;28;20059;-50
2022/10/07 06:15:29;;;;;;;13.38;7.30;;;;;;;13.53;100.00;99979.25;5104714;27;20373;-54
2022/10/07 06:18:14;;;;;;;14.38;7.43;;;;;;;13.91;100.00;99972.53;5118106;27;20181;-51
2022/10/07 06:21:01;;;;;;;14.95;8.95;;;;;;;14.34;96.98;99981.25;5100867;27;20039;-51
2022/10/07 06:23:51;;;;;;;10.52;6.63;;;;;;;14.13;97.86;99981.66;5099627;27;20040;-55
2022/10/07 06:26:37;;;;;;;10.05;6.55;;;;;;;14.07;98.10;99973.34;5112242;27;20123;-54
2022/10/07 06:29:22;;;;;;;12.52;6.75;;;;;;;14.11;97.35;99980.09;5105222;27;20083;-53
2022/10/07 06:32:07;;;;;;;10.52;6.43;;;;;;;14.13;97.01;99978.22;5102433;27;20047;-55
2022/10/07 06:34:52;;;;;;;10.82;6.95;;;;;;;14.22;96.81;99977.63;5102028;28;20138;-52
2022/10/07 06:37:39;;;;;;;8.93;6.15;;;;;;;14.21;95.90;99977.72;5110639;28;20445;-50
2022/10/07 06:40:26;;;;;;;16.10;7.82;;;;;;;14.35;95.23;99985.56;5094023;27;20070;-54
2022/10/07 06:43:11;;;;;;;11.40;7.18;;;;;;;14.30;95.42;99985.00;5119196;27;20104;-53
2022/10/07 06:46:05;;;;;;;10.13;6.63;;;;;;;14.34;94.96;99986.53;5097762;27;20045;-53
2022/10/07 06:48:50;;;;;;;12.75;7.20;;;;;;;14.07;96.46;99982.06;5114725;27;20134;-53
2022/10/07 06:51:35;;;;;;;12.32;8.02;;;;;;;14.19;95.72;99985.72;5111576;27;21537;-49
2022/10/07 06:54:20;;;;;;;9.57;6.60;;;;;;;14.63;93.09;99981.13;5092439;28;20039;-51
2022/10/07 06:57:04;;;;;;;14.32;7.30;;;;;;;15.32;90.31;99981.84;5109083;27;20122;-58
2022/10/07 06:59:49;;;;;;;11.75;6.80;;;;;;;15.02;90.62;99986.47;5118320;27;20118;-53
2022/10/07 07:02:35;;;;;;;9.32;6.70;;;;;;;15.22;89.32;99988.72;5109450;28;20036;-52
2022/10/07 07:05:20;;;;;;;10.15;6.60;;;;;;;15.39;88.25;99979.63;5107106;27;20394;-48
2022/10/07 07:08:05;;;;;;;10.38;6.35;;;;;;;15.58;87.61;99987.09;5105531;28;20066;-56
2022/10/07 07:10:50;;;;;;;16.33;6.15;;;;;;;17.02;81.77;99992.66;5105601;27;20084;-49
2022/10/07 07:13:35;;;;;;;14.13;7.28;;;;;;;16.32;84.38;99982.78;5106786;27;20592;-52
2022/10/07 07:16:22;;;;;;;10.90;6.82;;;;;;;16.10;83.72;99980.88;5106874;27;20054;-52
2022/10/07 07:19:10;;;;;;;10.73;6.63;;;;;;;16.28;83.19;99989.25;5095187;27;20177;-57
2022/10/07 07:21:55;;;;;;;10.32;5.78;;;;;;;16.11;84.02;99979.91;5101948;27;20062;-58
2022/10/07 07:24:41;;;;;;;10.50;6.93;;;;;;;16.60;84.12;99987.81;5107333;27;20047;-58
2022/10/07 07:27:26;;;;;;;8.45;6.05;;;;;;;17.04;81.39;99988.06;5110266;27;21493;-53
2022/10/07 07:30:12;;;;;;;12.20;7.32;;;;;;;16.75;82.49;99997.25;5107633;28;20184;-56
2022/10/07 07:32:57;;;;;;;10.70;7.10;;;;;;;17.12;80.14;99982.19;5117441;27;20121;-54
2022/10/07 07:35:43;;;;;;;11.02;6.88;;;;;;;17.14;79.71;99990.06;5091920;28;20138;-52
2022/10/07 07:38:28;;;;;;;10.15;6.75;;;;;;;16.75;81.04;99991.13;5119087;27;20047;-56
2022/10/07 07:41:13;;;;;;;13.57;6.03;;;;;;;17.47;82.48;99978.63;5096135;28;20130;-56
2022/10/07 07:44:00;;;;;;;9.65;6.55;;;;;;;17.35;77.49;99977.78;5105483;27;20043;-53
2022/10/07 07:46:48;;;;;;;12.48;6.80;;;;;;;17.97;75.04;99969.41;5121071;27;20122;-52
2022/10/07 07:49:34;;;;;;;13.85;6.43;;;;;;;17.61;77.02;99981.97;5106188;27;20035;-56
2022/10/07 07:52:19;;;;;;;11.23;6.47;;;;;;;18.31;76.21;99978.28;5109608;27;20098;-51
2022/10/07 07:55:06;;;;;;;12.05;7.00;;;;;;;18.43;73.10;99974.59;5113858;27;20047;-51
2022/10/07 07:57:51;;;;;;;11.50;6.57;;;;;;;18.91;70.58;99971.59;5104790;27;20111;-51
2022/10/07 08:00:36;;;;;;;11.55;6.32;;;;;;;19.25;69.89;99968.72;5110626;27;20049;-52
2022/10/07 08:03:24;;;;;;;8.93;6.50;;;;;;;19.48;69.16;99971.22;5113690;27;20078;-56
2022/10/07 08:06:10;;;;;;;12.10;7.15;;;;;;;19.35;69.65;99968.78;5116510;27;20062;-51
2022/10/07 08:08:57;;;;;;;13.63;7.25;;;;;;;19.15;69.80;99966.03;5091966;28;20123;-52
2022/10/07 08:11:44;;;;;;;10.57;7.15;;;;;;;19.92;66.12;99968.25;5098272;28;20062;-58
2022/10/07 08:14:35;;;;;;;13.65;8.43;;;;;;;19.27;67.41;99965.94;5097873;27;20581;-57
2022/10/07 08:17:20;;;;;;;11.25;7.07;;;;;;;19.49;67.91;99956.94;5098373;27;20444;-57
2022/10/07 08:20:07;;;;;;;11.27;6.80;;;;;;;20.29;65.16;99947.31;5111729;27;20038;-53
2022/10/07 08:22:51;;;;;;;12.32;7.30;;;;;;;19.77;65.98;99943.88;5123511;27;20039;-52
2022/10/07 08:25:36;;;;;;;14.00;6.75;;;;;;;20.28;65.33;99949.16;5095964;28;20421;-55
2022/10/07 08:28:24;;;;;;;10.68;6.78;;;;;;;21.01;61.45;99946.13;5105723;28;20048;-58
2022/10/07 08:31:13;;;;;;;12.60;7.20;;;;;;;20.53;62.87;99954.03;5103092;28;20221;-54
2022/10/07 08:33:59;;;;;;;10.38;7.05;;;;;;;20.28;63.53;99945.63;5123562;27;20039;-55
2022/10/07 08:36:46;;;;;;;10.98;7.18;;;;;;;20.30;64.10;99949.00;5101604;28;20075;-55
2022/10/07 08:39:30;;;;;;;9.63;7.28;;;;;;;19.55;66.18;99944.94;5103104;28;20050;-55
2022/10/07 08:42:32;;;;;;;11.00;7.30;;;;;;;20.30;63.57;99939.19;5115698;27;20127;-53
2022/10/07 08:45:26;;;;;;;8.13;5.95;;;;;;;20.66;62.84;99948.41;5110424;27;20080;-55
2022/10/07 08:48:21;;;;;;;7.65;6.00;;;;;;;20.73;62.33;99941.53;5105473;27;20055;-56
2022/10/07 08:51:19;;;;;;;11.38;5.90;;;;;;;20.98;61.64;99935.75;5103523;27;20074;-56
2022/10/07 08:54:04;;;;;;;9.25;6.45;;;;;;;20.56;62.56;99937.78;5108568;28;20086;-55
2022/10/07 08:56:49;;;;;;;9.98;6.90;;;;;;;20.42;62.77;99939.03;5096089;27;20130;-55
2022/10/07 08:59:34;;;;;;;10.15;6.03;;;;;;;20.99;61.54;99940.94;5117312;27;20134;-56
2022/10/07 09:02:34;;;;;;;11.13;6.85;;;;;;;20.87;61.26;99928.75;5097907;27;20036;-54
2022/10/07 09:05:25;;;;;;;8.80;6.10;;;;;;;21.36;59.99;99928.63;5105310;27;20528;-56
2022/10/07 09:08:28;;;;;;;10.70;6.78;;;;;;;20.79;61.88;99924.97;5107960;28;20050;-58
2022/10/07 09:11:24;;;;;;;9.77;6.38;;;;;;;20.80;62.75;99926.69;5108727;27;20112;-58
2022/10/07 09:14:25;;;;;;;8.30;6.22;;;;;;;21.73;60.42;99904.69;5112701;27;20032;-56
2022/10/07 09:17:34;;;;;;;12.38;7.05;;;;;;;21.44;59.58;99913.69;5110836;27;20114;-55
2022/10/07 09:20:24;;;;;;;9.93;7.05;;;;;;;22.02;58.25;99906.34;5113101;27;20078;-56
2022/10/07 09:23:14;;;;;;;7.53;5.38;;;;;;;22.74;56.50;99905.44;5111627;28;20490;-56
2022/10/07 09:25:59;;;;;;;10.45;6.15;;;;;;;22.80;55.06;99889.78;5106829;28;20039;-55
2022/10/07 09:28:44;;;;;;;11.07;5.72;;;;;;;22.57;55.48;99898.28;5095908;28;20389;-56
2022/10/07 09:31:29;;;;;;;10.75;6.13;;;;;;;22.26;57.11;99895.03;5103869;28;20044;-56
2022/10/07 09:34:28;;;;;;;8.80;5.72;;;;;;;23.00;54.73;99899.22;5095815;28;20075;-56
2022/10/07 09:37:14;;;;;;;8.80;5.47;;;;;;;23.55;53.52;99898.94;5105802;28;20040;-54
2022/10/07 09:40:29;;;;;;;9.77;5.82;;;;;;;23.63;53.25;99892.81;5105677;28;20145;-57
2022/10/07 09:43:18;;;;;;;9.02;6.35;;;;;;;23.73;52.13;99882.78;5105124;28;20062;-56
2022/10/07 09:46:02;;;;;;;12.32;7.18;;;;;;;23.02;53.63;99880.38;5111897;28;20507;-56
2022/10/07 09:48:54;;;;;;;11.52;5.75;;;;;;;23.71;51.47;99874.13;5107015;28;20446;-56
2022/10/07 09:51:38;;;;;;;12.00;6.47;;;;;;;24.04;50.17;99883.97;5106536;28;20222;-55
2022/10/07 09:54:24;;;;;;;14.75;6.72;;;;;;;23.46;50.63;99868.69;5114121;28;20048;-54
2022/10/07 09:57:28;;;;;;;9.02;6.50;;;;;;;22.54;52.91;99878.06;5106690;28;20047;-53
2022/10/07 10:00:12;;;;;;;13.27;6.65;;;;;;;22.92;52.97;99877.81;5094181;28;20572;-54
2022/10/07 10:03:05;;;;;;;11.23;6.57;;;;;;;22.87;52.42;99872.94;5106494;28;20131;-54
2022/10/07 10:05:52;;;;;;;9.23;6.35;;;;;;;23.09;52.29;99870.72;5107497;28;20048;-55
2022/10/07 10:08:41;;;;;;;12.65;6.90;;;;;;;23.52;51.28;99867.19;5105698;28;20397;-54
2022/10/07 10:11:29;;;;;;;13.00;6.35;;;;;;;23.65;50.44;99865.91;5116100;28;20043;-53
2022/10/07 10:14:34;;;;;;;10.98;6.00;;;;;;;23.66;50.97;99862.22;5102429;28;20057;-54
2022/10/07 10:17:38;;;;;;;10.23;6.65;;;;;;;23.62;50.51;99862.56;5106072;28;20047;-53
2022/10/07 10:20:31;;;;;;;10.57;6.85;;;;;;;24.21;48.77;99855.44;5105559;28;20047;-56
2022/10/07 10:23:27;;;;;;;8.73;6.10;;;;;;;24.13;51.22;99855.41;5113919;27;20040;-57
2022/10/07 10:26:26;;;;;;;7.70;5.25;;;;;;;24.24;50.86;99849.75;5104160;28;20416;-56
2022/10/07 10:29:44;;;;;;;8.57;5.20;;;;;;;25.38;47.43;99840.88;5091839;27;20036;-55
2022/10/07 10:32:47;;;;;;;9.45;5.88;;;;;;;24.19;50.71;99832.50;5118606;27;20074;-56
2022/10/07 10:35:45;;;;;;;8.20;6.30;;;;;;;24.72;48.20;99840.94;5106055;27;20044;-51
2022/10/07 10:38:49;;;;;;;9.02;6.35;;;;;;;24.25;48.55;99837.19;5113111;27;20126;-54
2022/10/07 10:42:02;;;;;;;8.65;6.07;;;;;;;24.76;47.29;99836.06;5103241;27;20039;-54
2022/10/07 10:45:02;;;;;;;7.80;5.68;;;;;;;23.34;51.17;99822.69;5122611;27;20375;-52
2022/10/07 10:48:02;;;;;;;9.10;5.97;;;;;;;23.17;52.08;99815.63;5095382;28;20024;-54
2022/10/07 10:50:57;;;;;;;10.15;6.32;;;;;;;23.43;51.15;99820.06;5104484;28;20114;-55
2022/10/07 10:54:14;;;;;;;9.80;5.07;;;;;;;23.76;50.76;99812.09;5119538;27;20035;-52
2022/10/07 10:57:16;;;;;;;7.93;5.40;;;;;;;22.65;53.55;99799.56;5009456;28;20465;-54
2022/10/07 11:00:15;;;;;;;8.75;5.72;;;;;;;24.32;49.57;99792.66;5003076;28;20052;-55
2022/10/07 11:03:41;;;;;;;8.98;5.35;;;;;;;24.48;48.61;99793.66;5007215;28;20070;-53
2022/10/07 11:06:29;;;;;;;8.50;4.93;;;;;;;24.33;48.91;99788.16;4956577;28;20334;-53
2022/10/07 11:09:29;;;;;;;9.52;4.82;;;;;;;25.29;47.01;99786.44;4953208;28;20069;-57
2022/10/07 11:12:22;;;;;;;9.82;5.63;;;;;;;25.27;46.97;99775.06;4953590;28;20051;-54
2022/10/07 11:15:20;;;;;;;9.45;5.43;;;;;;;25.06;46.74;99766.66;4949699;28;20074;-54
2022/10/07 11:18:10;;;;;;;7.68;4.93;;;;;;;24.93;47.61;99763.69;4951755;28;20093;-54
2022/10/07 11:20:58;;;;;;;7.93;5.15;;;;;;;24.44;47.81;99757.50;4954606;28;20464;-53
2022/10/07 11:23:49;;;;;;;10.05;4.70;;;;;;;24.96;47.74;99747.28;4947707;28;20043;-54
2022/10/07 11:26:42;;;;;;;10.55;5.20;;;;;;;24.42;48.70;99744.28;4960557;28;20051;-54
2022/10/07 11:29:42;;;;;;;9.15;4.95;;;;;;;24.70;47.52;99745.69;4954009;28;20074;-51
2022/10/07 11:32:41;;;;;;;7.43;4.68;;;;;;;25.50;46.08;99726.81;4959129;28;20067;-56
2022/10/07 11:35:47;;;;;;;7.68;5.00;;;;;;;25.36;46.13;99731.13;5056944;28;20063;-54
2022/10/07 11:38:36;;;;;;;7.50;4.90;;;;;;;25.22;45.81;99721.97;5072042;28;20558;-55
2022/10/07 11:41:30;;;;;;;8.30;5.20;;;;;;;24.87;46.87;99714.31;5057498;28;20479;-58
2022/10/07 11:44:37;;;;;;;8.43;5.28;;;;;;;24.77;47.19;99708.34;5109123;27;20122;-51
2022/10/07 11:47:26;;;;;;;7.55;4.63;;;;;;;25.31;45.89;99704.81;5115752;27;20028;-49
2022/10/07 11:50:21;;;;;;;8.18;4.85;;;;;;;24.51;47.98;99707.63;5122512;27;20107;-50
2022/10/07 11:53:19;;;;;;;7.82;4.32;;;;;;;26.02;44.45;99696.66;5123737;27;20042;-54
2022/10/07 11:56:19;;;;;;;6.57;4.30;;;;;;;25.70;44.77;99686.09;5080325;28;20036;-59
2022/10/07 11:59:06;;;;;;;6.95;4.40;;;;;;;25.59;45.28;99682.81;5095126;27;20047;-55
2022/10/07 12:01:51;;;;;;;8.20;4.07;;;;;;;25.85;44.89;99682.59;5103316;27;20051;-53
2022/10/07 12:04:37;;;;;;;7.88;4.40;;;;;;;24.96;46.72;99677.59;5101912;28;20040;-55
2022/10/07 12:07:43;;;;;;;6.95;4.20;;;;;;;25.32;45.13;99674.34;5098321;27;20044;-54
2022/10/07 12:10:32;;;;;;;5.53;3.22;;;;;;;26.00;46.23;99669.22;5096030;28;20031;-57
2022/10/07 12:13:17;;;;;;;5.00;3.95;;;;;;;25.83;44.50;99659.47;5107582;27;20799;-51
2022/10/07 12:16:28;;;;;;;6.53;4.00;;;;;;;24.94;45.06;99660.88;5104444;27;20528;-53
2022/10/07 12:19:14;;;;;;;7.00;3.85;;;;;;;26.25;43.28;99652.78;5099771;28;20042;-50
2022/10/07 12:22:12;;;;;;;5.10;3.28;;;;;;;26.32;42.64;99654.59;5101413;27;20031;-51
2022/10/07 12:25:28;;;;;;;6.70;3.13;;;;;;;25.80;43.64;99643.72;5105172;28;20442;-54
2022/10/07 12:28:22;;;;;;;5.30;3.00;;;;;;;25.37;43.76;99641.63;5109077;27;20035;-57
2022/10/07 12:31:22;;;;;;;4.47;2.92;;;;;;;24.58;45.14;99630.94;5101753;28;20032;-58
2022/10/07 12:34:08;;;;;;;4.78;3.10;;;;;;;24.81;45.22;99630.13;5117738;27;20031;-58
2022/10/07 12:37:13;;;;;;;5.43;2.78;;;;;;;25.03;43.96;99629.50;5108712;27;20043;-58
2022/10/07 12:39:58;;;;;;;3.75;2.35;;;;;;;24.87;44.67;99619.72;5110815;27;20036;-57
2022/10/07 12:42:51;;;;;;;5.65;2.50;;;;;;;24.41;45.32;99621.31;5111199;27;20037;-60
2022/10/07 12:45:40;;;;;;;4.45;2.78;;;;;;;25.39;43.37;99628.03;5110311;28;20034;-57
2022/10/07 12:48:31;;;;;;;3.90;2.60;;;;;;;25.39;43.72;99609.25;5119516;27;20067;-56
2022/10/07 12:51:23;;;;;;;6.93;2.50;;;;;;;25.67;42.71;99601.44;5112292;27;20394;-57
2022/10/07 12:54:24;;;;;;;2.80;2.30;;;;;;;25.50;43.15;99594.56;5101385;28;20057;-55
2022/10/07 12:57:17;;;;;;;5.43;2.78;;;;;;;25.14;43.88;99609.47;5096457;28;20053;-56
2022/10/07 13:00:07;;;;;;;5.55;2.30;;;;;;;24.93;43.57;99592.22;5109679;27;20439;-58
2022/10/07 13:02:54;;;;;;;3.60;2.38;;;;;;;24.80;44.05;99603.50;5104189;28;20044;-58
2022/10/07 13:06:00;;;;;;;4.40;2.50;;;;;;;24.25;44.98;99601.66;5120707;27;20513;-58
2022/10/07 13:09:18;;;;;;;3.35;2.25;;;;;;;23.98;46.12;99583.19;5102533;28;20036;-57
2022/10/07 13:12:03;;;;;;;5.68;2.63;;;;;;;24.94;44.31;99580.47;5095505;28;20063;-58
2022/10/07 13:14:58;;;;;;;2.75;1.90;;;;;;;25.36;43.58;99575.63;5123504;27;20039;-58
2022/10/07 13:17:46;;;;;;;3.15;2.30;;;;;;;24.97;43.24;99580.97;5115682;27;20063;-58
2022/10/07 13:20:36;;;;;;;4.55;2.50;;;;;;;24.90;44.06;99576.50;5128550;27;20043;-57
2022/10/07 13:23:22;;;;;;;;;;;;;;;24.95;43.41;99566.09;5125384;27;20143;-58